Iva, Indiana
Current Conditions -  °F | °C
As of 2:15 PM on Monday 24 Nov 2014 (Local Time) from KDCY Reporting Station
Overcast Overcast  
Wind Chill: 33°   Ceiling: 4700
Heat Index: 42°   Visibility: 10mi
Dew Point: 32°   Wind: 18mph
Humidity: 68%   Direction: 250°WSW
Pressure: 29.75"   Gusts: 26mph
Location:  38.4809°N, 87.101°W
Report Text: KDCY 242015Z AUTO 25016G23KT 10SM SCT039 OVC047 06/00 A2975 RMK AO2 T00550001
Loading
Personal Weather Stations






























Interactive Weather Map New forecast layout! Learn more

10-Day Weather Forecast

Advertisements
Track Severe Weather on mobile